sensor_id;sensor_type;location;lat;lon;timestamp;pressure;altitude;pressure_sealevel;temperature;humidity
52777;BME280;38656;54.260;20.822;2023-05-20T00:01:59;102344.78;;;19.96;78.61
52777;BME280;38656;54.260;20.822;2023-05-20T00:04:25;102345.69;;;20.55;75.45
52777;BME280;38656;54.260;20.822;2023-05-20T00:06:51;102346.56;;;20.75;73.59
52777;BME280;38656;54.260;20.822;2023-05-20T00:09:18;102341.03;;;20.77;73.64
52777;BME280;38656;54.260;20.822;2023-05-20T00:11:45;102350.94;;;20.76;73.42
52777;BME280;38656;54.260;20.822;2023-05-20T00:14:11;102348.69;;;20.72;73.27
52777;BME280;38656;54.260;20.822;2023-05-20T00:16:37;102348.94;;;20.78;73.17
52777;BME280;38656;54.260;20.822;2023-05-20T00:19:04;102352.31;;;20.61;75.09
52777;BME280;38656;54.260;20.822;2023-05-20T00:21:30;102344.69;;;20.76;75.11
52777;BME280;38656;54.260;20.822;2023-05-20T00:23:56;102355.44;;;20.56;75.73
52777;BME280;38656;54.260;20.822;2023-05-20T00:26:22;102353.47;;;20.58;75.14
52777;BME280;38656;54.260;20.822;2023-05-20T00:28:49;102356.56;;;20.63;74.87
52777;BME280;38656;54.260;20.822;2023-05-20T00:31:15;102354.88;;;20.43;76.48
52777;BME280;38656;54.260;20.822;2023-05-20T00:33:41;102352.03;;;20.44;76.17
52777;BME280;38656;54.260;20.822;2023-05-20T00:36:07;102354.59;;;20.65;75.30
52777;BME280;38656;54.260;20.822;2023-05-20T00:38:33;102350.03;;;19.97;78.79
52777;BME280;38656;54.260;20.822;2023-05-20T00:41:00;102348.38;;;20.55;76.18
52777;BME280;38656;54.260;20.822;2023-05-20T00:43:26;102341.31;;;20.54;76.50
52777;BME280;38656;54.260;20.822;2023-05-20T00:45:53;102348.50;;;20.44;77.01
52777;BME280;38656;54.260;20.822;2023-05-20T00:48:20;102343.72;;;20.57;76.55
52777;BME280;38656;54.260;20.822;2023-05-20T00:50:47;102350.38;;;20.43;77.27
52777;BME280;38656;54.260;20.822;2023-05-20T00:53:16;102338.22;;;20.49;76.39
52777;BME280;38656;54.260;20.822;2023-05-20T00:55:46;102336.50;;;20.38;77.12
52777;BME280;38656;54.260;20.822;2023-05-20T00:58:12;102337.50;;;20.27;77.25
52777;BME280;38656;54.260;20.822;2023-05-20T01:00:39;102337.38;;;20.39;76.71
52777;BME280;38656;54.260;20.822;2023-05-20T01:03:05;102341.97;;;19.47;82.08
52777;BME280;38656;54.260;20.822;2023-05-20T01:05:31;102341.03;;;19.27;84.56
52777;BME280;38656;54.260;20.822;2023-05-20T01:07:57;102343.47;;;20.70;78.30
52777;BME280;38656;54.260;20.822;2023-05-20T01:10:25;102342.53;;;19.51;80.85
52777;BME280;38656;54.260;20.822;2023-05-20T01:12:57;102336.94;;;20.53;78.19
52777;BME280;38656;54.260;20.822;2023-05-20T01:15:27;102344.03;;;21.21;74.91
52777;BME280;38656;54.260;20.822;2023-05-20T01:17:57;102345.94;;;21.38;73.51
52777;BME280;38656;54.260;20.822;2023-05-20T01:20:27;102342.94;;;21.14;73.12
52777;BME280;38656;54.260;20.822;2023-05-20T01:22:55;102337.56;;;21.14;72.33
52777;BME280;38656;54.260;20.822;2023-05-20T01:25:22;102332.25;;;20.65;73.53
52777;BME280;38656;54.260;20.822;2023-05-20T01:27:50;102331.31;;;19.76;75.45
52777;BME280;38656;54.260;20.822;2023-05-20T01:30:18;102330.53;;;19.86;75.82
52777;BME280;38656;54.260;20.822;2023-05-20T01:32:49;102324.22;;;20.16;74.13
52777;BME280;38656;54.260;20.822;2023-05-20T01:35:17;102332.28;;;20.75;72.70
52777;BME280;38656;54.260;20.822;2023-05-20T01:37:45;102333.09;;;20.85;70.85
52777;BME280;38656;54.260;20.822;2023-05-20T01:40:13;102324.09;;;20.66;71.18
52777;BME280;38656;54.260;20.822;2023-05-20T01:42:42;102325.78;;;20.67;71.31
52777;BME280;38656;54.260;20.822;2023-05-20T01:45:08;102323.66;;;20.61;71.12
52777;BME280;38656;54.260;20.822;2023-05-20T01:47:35;102328.88;;;20.53;70.43
52777;BME280;38656;54.260;20.822;2023-05-20T01:50:01;102327.63;;;20.38;71.32
52777;BME280;38656;54.260;20.822;2023-05-20T01:52:28;102317.63;;;21.07;69.11
52777;BME280;38656;54.260;20.822;2023-05-20T01:54:54;102316.19;;;20.36;69.16
52777;BME280;38656;54.260;20.822;2023-05-20T01:57:21;102318.44;;;20.30;69.64
52777;BME280;38656;54.260;20.822;2023-05-20T01:59:47;102318.13;;;20.53;69.77
52777;BME280;38656;54.260;20.822;2023-05-20T02:02:14;102321.44;;;21.14;67.83
52777;BME280;38656;54.260;20.822;2023-05-20T02:04:44;102319.22;;;20.99;67.35
52777;BME280;38656;54.260;20.822;2023-05-20T02:07:16;102317.56;;;21.26;67.24
52777;BME280;38656;54.260;20.822;2023-05-20T02:09:46;102323.53;;;21.20;67.27
52777;BME280;38656;54.260;20.822;2023-05-20T02:12:13;102320.38;;;20.77;67.87
52777;BME280;38656;54.260;20.822;2023-05-20T02:14:43;102324.91;;;20.67;68.14
52777;BME280;38656;54.260;20.822;2023-05-20T02:17:11;102330.88;;;20.51;67.03
52777;BME280;38656;54.260;20.822;2023-05-20T02:19:39;102330.84;;;20.90;67.68
52777;BME280;38656;54.260;20.822;2023-05-20T02:22:06;102322.28;;;21.04;66.39
52777;BME280;38656;54.260;20.822;2023-05-20T02:24:32;102320.94;;;20.91;66.40
52777;BME280;38656;54.260;20.822;2023-05-20T02:26:58;102326.25;;;21.10;66.16
52777;BME280;38656;54.260;20.822;2023-05-20T02:29:25;102321.69;;;21.20;65.77
52777;BME280;38656;54.260;20.822;2023-05-20T02:31:51;102322.78;;;21.28;65.62
52777;BME280;38656;54.260;20.822;2023-05-20T02:34:18;102321.25;;;21.25;64.89
52777;BME280;38656;54.260;20.822;2023-05-20T02:36:44;102325.41;;;21.00;65.93
52777;BME280;38656;54.260;20.822;2023-05-20T02:39:10;102321.66;;;21.30;65.49
52777;BME280;38656;54.260;20.822;2023-05-20T02:41:37;102327.72;;;21.32;64.35
52777;BME280;38656;54.260;20.822;2023-05-20T02:44:03;102322.22;;;21.24;64.68
52777;BME280;38656;54.260;20.822;2023-05-20T02:46:30;102321.38;;;21.24;65.20
52777;BME280;38656;54.260;20.822;2023-05-20T02:48:56;102313.38;;;21.42;63.63
52777;BME280;38656;54.260;20.822;2023-05-20T02:51:24;102323.00;;;21.44;63.32
52777;BME280;38656;54.260;20.822;2023-05-20T02:53:50;102327.28;;;21.92;61.80
52777;BME280;38656;54.260;20.822;2023-05-20T02:56:16;102320.75;;;21.95;61.44
52777;BME280;38656;54.260;20.822;2023-05-20T02:58:46;102322.97;;;21.82;61.75
52777;BME280;38656;54.260;20.822;2023-05-20T03:01:12;102317.06;;;21.40;62.38
52777;BME280;38656;54.260;20.822;2023-05-20T03:03:38;102322.56;;;21.77;62.50
52777;BME280;38656;54.260;20.822;2023-05-20T03:06:06;102322.22;;;21.89;62.50
52777;BME280;38656;54.260;20.822;2023-05-20T03:08:33;102318.28;;;22.02;61.18
52777;BME280;38656;54.260;20.822;2023-05-20T03:10:59;102319.78;;;21.68;62.76
52777;BME280;38656;54.260;20.822;2023-05-20T03:13:25;102316.53;;;21.92;62.21
52777;BME280;38656;54.260;20.822;2023-05-20T03:15:52;102317.19;;;21.77;62.59
52777;BME280;38656;54.260;20.822;2023-05-20T03:18:18;102319.19;;;21.74;62.33
52777;BME280;38656;54.260;20.822;2023-05-20T03:20:45;102327.75;;;21.88;62.39
52777;BME280;38656;54.260;20.822;2023-05-20T03:23:11;102328.25;;;21.73;62.60
52777;BME280;38656;54.260;20.822;2023-05-20T03:25:39;102326.47;;;21.64;63.16
52777;BME280;38656;54.260;20.822;2023-05-20T03:28:05;102327.38;;;22.19;61.13
52777;BME280;38656;54.260;20.822;2023-05-20T03:30:31;102329.84;;;22.30;60.79
52777;BME280;38656;54.260;20.822;2023-05-20T03:32:58;102330.53;;;22.14;60.85
52777;BME280;38656;54.260;20.822;2023-05-20T03:35:25;102336.13;;;21.85;61.97
52777;BME280;38656;54.260;20.822;2023-05-20T03:37:52;102331.34;;;21.79;62.26
52777;BME280;38656;54.260;20.822;2023-05-20T03:40:18;102338.41;;;21.80;61.86
52777;BME280;38656;54.260;20.822;2023-05-20T03:42:48;102328.25;;;21.73;62.57
52777;BME280;38656;54.260;20.822;2023-05-20T03:45:15;102338.09;;;21.83;62.04
52777;BME280;38656;54.260;20.822;2023-05-20T03:47:41;102339.66;;;22.03;61.39
52777;BME280;38656;54.260;20.822;2023-05-20T03:50:08;102332.81;;;21.91;61.11
52777;BME280;38656;54.260;20.822;2023-05-20T03:52:34;102333.97;;;22.06;61.23
52777;BME280;38656;54.260;20.822;2023-05-20T03:55:00;102337.66;;;22.05;61.35
52777;BME280;38656;54.260;20.822;2023-05-20T03:57:26;102335.06;;;22.14;61.42
52777;BME280;38656;54.260;20.822;2023-05-20T03:59:54;102327.97;;;22.13;61.53
52777;BME280;38656;54.260;20.822;2023-05-20T04:02:20;102330.78;;;22.21;61.01
52777;BME280;38656;54.260;20.822;2023-05-20T04:04:46;102326.75;;;21.89;61.58
52777;BME280;38656;54.260;20.822;2023-05-20T04:07:12;102334.91;;;21.97;61.55
52777;BME280;38656;54.260;20.822;2023-05-20T04:09:39;102339.53;;;22.23;61.42
52777;BME280;38656;54.260;20.822;2023-05-20T04:12:05;102334.13;;;22.23;61.51
52777;BME280;38656;54.260;20.822;2023-05-20T04:14:33;102331.56;;;22.31;60.97
52777;BME280;38656;54.260;20.822;2023-05-20T04:17:01;102339.66;;;22.03;62.49
52777;BME280;38656;54.260;20.822;2023-05-20T04:19:27;102340.97;;;22.17;62.59
52777;BME280;38656;54.260;20.822;2023-05-20T04:21:55;102338.63;;;22.32;61.81
52777;BME280;38656;54.260;20.822;2023-05-20T04:24:21;102336.34;;;22.37;61.64
52777;BME280;38656;54.260;20.822;2023-05-20T04:26:50;102333.53;;;22.29;61.86
52777;BME280;38656;54.260;20.822;2023-05-20T04:29:17;102337.16;;;22.56;61.07
52777;BME280;38656;54.260;20.822;2023-05-20T04:31:45;102339.28;;;22.70;60.85
52777;BME280;38656;54.260;20.822;2023-05-20T04:34:12;102338.84;;;22.57;61.49
52777;BME280;38656;54.260;20.822;2023-05-20T04:36:38;102336.53;;;21.62;61.55
52777;BME280;38656;54.260;20.822;2023-05-20T04:39:05;102342.19;;;21.87;63.80
52777;BME280;38656;54.260;20.822;2023-05-20T04:41:34;102337.75;;;21.50;65.25
52777;BME280;38656;54.260;20.822;2023-05-20T04:44:01;102345.88;;;22.04;63.33
52777;BME280;38656;54.260;20.822;2023-05-20T04:46:28;102340.88;;;21.91;62.93
52777;BME280;38656;54.260;20.822;2023-05-20T04:48:54;102343.25;;;21.76;64.44
52777;BME280;38656;54.260;20.822;2023-05-20T04:51:21;102346.38;;;21.71;64.78
52777;BME280;38656;54.260;20.822;2023-05-20T04:53:47;102332.91;;;22.17;63.17
52777;BME280;38656;54.260;20.822;2023-05-20T04:56:15;102330.38;;;22.16;64.04
52777;BME280;38656;54.260;20.822;2023-05-20T04:58:41;102334.00;;;22.42;62.64
52777;BME280;38656;54.260;20.822;2023-05-20T05:01:08;102337.91;;;22.66;62.17
52777;BME280;38656;54.260;20.822;2023-05-20T05:03:34;102339.75;;;22.66;61.72
52777;BME280;38656;54.260;20.822;2023-05-20T05:06:00;102341.03;;;22.79;61.86
52777;BME280;38656;54.260;20.822;2023-05-20T05:08:26;102337.50;;;22.25;63.57
52777;BME280;38656;54.260;20.822;2023-05-20T05:10:52;102331.69;;;22.48;63.63
52777;BME280;38656;54.260;20.822;2023-05-20T05:13:18;102338.16;;;22.37;63.08
52777;BME280;38656;54.260;20.822;2023-05-20T05:15:44;102340.28;;;22.15;64.34
52777;BME280;38656;54.260;20.822;2023-05-20T05:18:11;102347.84;;;22.48;62.88
52777;BME280;38656;54.260;20.822;2023-05-20T05:20:37;102343.69;;;22.53;61.99
52777;BME280;38656;54.260;20.822;2023-05-20T05:23:03;102344.59;;;22.62;62.67
52777;BME280;38656;54.260;20.822;2023-05-20T05:25:29;102341.84;;;22.54;63.50
52777;BME280;38656;54.260;20.822;2023-05-20T05:27:56;102336.28;;;23.00;62.61
52777;BME280;38656;54.260;20.822;2023-05-20T05:30:22;102343.66;;;22.71;62.33
52777;BME280;38656;54.260;20.822;2023-05-20T05:32:49;102335.59;;;22.17;63.93
52777;BME280;38656;54.260;20.822;2023-05-20T05:35:15;102342.03;;;22.34;63.63
52777;BME280;38656;54.260;20.822;2023-05-20T05:37:42;102334.38;;;22.92;62.97
52777;BME280;38656;54.260;20.822;2023-05-20T05:40:08;102341.53;;;22.57;63.32
52777;BME280;38656;54.260;20.822;2023-05-20T05:42:34;102341.06;;;22.61;63.21
52777;BME280;38656;54.260;20.822;2023-05-20T05:45:00;102347.75;;;22.75;63.05
52777;BME280;38656;54.260;20.822;2023-05-20T05:47:26;102337.56;;;23.13;63.44
52777;BME280;38656;54.260;20.822;2023-05-20T05:49:57;102343.22;;;22.58;63.48
52777;BME280;38656;54.260;20.822;2023-05-20T05:52:25;102332.25;;;22.77;63.92
52777;BME280;38656;54.260;20.822;2023-05-20T05:54:51;102335.75;;;23.22;63.10
52777;BME280;38656;54.260;20.822;2023-05-20T05:57:17;102330.88;;;23.26;63.46
52777;BME280;38656;54.260;20.822;2023-05-20T05:59:43;102330.56;;;23.29;62.69
52777;BME280;38656;54.260;20.822;2023-05-20T06:02:09;102327.19;;;23.69;62.76
52777;BME280;38656;54.260;20.822;2023-05-20T06:04:36;102328.16;;;23.60;61.47
52777;BME280;38656;54.260;20.822;2023-05-20T06:07:02;102333.75;;;23.67;62.63
52777;BME280;38656;54.260;20.822;2023-05-20T06:09:28;102328.56;;;23.31;61.10
52777;BME280;38656;54.260;20.822;2023-05-20T06:11:54;102339.50;;;23.64;62.43
52777;BME280;38656;54.260;20.822;2023-05-20T06:14:21;102335.19;;;23.88;60.94
52777;BME280;38656;54.260;20.822;2023-05-20T06:16:47;102334.00;;;23.90;60.74
52777;BME280;38656;54.260;20.822;2023-05-20T06:19:13;102333.22;;;24.06;59.84
52777;BME280;38656;54.260;20.822;2023-05-20T06:21:39;102330.03;;;24.93;59.51
52777;BME280;38656;54.260;20.822;2023-05-20T06:24:06;102333.16;;;25.13;58.72
52777;BME280;38656;54.260;20.822;2023-05-20T06:26:32;102339.66;;;24.54;59.81
52777;BME280;38656;54.260;20.822;2023-05-20T06:28:58;102323.78;;;24.84;58.03
52777;BME280;38656;54.260;20.822;2023-05-20T06:31:24;102322.66;;;25.26;57.08
52777;BME280;38656;54.260;20.822;2023-05-20T06:33:51;102331.13;;;25.15;57.08
52777;BME280;38656;54.260;20.822;2023-05-20T06:36:17;102333.66;;;25.65;57.47
52777;BME280;38656;54.260;20.822;2023-05-20T06:38:43;102331.28;;;25.14;58.66
52777;BME280;38656;54.260;20.822;2023-05-20T06:41:09;102326.53;;;25.64;57.16
52777;BME280;38656;54.260;20.822;2023-05-20T06:43:36;102325.59;;;25.56;56.45
52777;BME280;38656;54.260;20.822;2023-05-20T06:46:02;102329.66;;;25.52;57.18
52777;BME280;38656;54.260;20.822;2023-05-20T06:48:28;102319.75;;;25.36;56.17
52777;BME280;38656;54.260;20.822;2023-05-20T06:50:54;102328.38;;;26.26;54.79
52777;BME280;38656;54.260;20.822;2023-05-20T06:53:21;102335.88;;;26.62;54.90
52777;BME280;38656;54.260;20.822;2023-05-20T06:55:47;102334.63;;;27.02;53.18
52777;BME280;38656;54.260;20.822;2023-05-20T06:58:14;102333.22;;;26.77;52.09
52777;BME280;38656;54.260;20.822;2023-05-20T07:00:40;102325.84;;;27.82;50.69
52777;BME280;38656;54.260;20.822;2023-05-20T07:03:06;102329.34;;;27.61;52.18
52777;BME280;38656;54.260;20.822;2023-05-20T07:05:33;102332.47;;;27.58;48.00
52777;BME280;38656;54.260;20.822;2023-05-20T07:07:59;102325.06;;;27.22;49.60
52777;BME280;38656;54.260;20.822;2023-05-20T07:10:25;102328.69;;;27.73;50.60
52777;BME280;38656;54.260;20.822;2023-05-20T07:12:52;102328.41;;;28.27;48.39
52777;BME280;38656;54.260;20.822;2023-05-20T07:15:18;102321.44;;;29.02;46.73
52777;BME280;38656;54.260;20.822;2023-05-20T07:17:44;102321.84;;;28.99;47.19
52777;BME280;38656;54.260;20.822;2023-05-20T07:20:10;102326.66;;;28.97;48.98
52777;BME280;38656;54.260;20.822;2023-05-20T07:22:37;102333.41;;;30.18;46.48
52777;BME280;38656;54.260;20.822;2023-05-20T07:25:03;102327.13;;;30.04;45.71
52777;BME280;38656;54.260;20.822;2023-05-20T07:27:29;102327.47;;;29.26;46.94
52777;BME280;38656;54.260;20.822;2023-05-20T07:29:55;102326.94;;;30.52;43.28
52777;BME280;38656;54.260;20.822;2023-05-20T07:32:22;102325.59;;;29.81;45.24
52777;BME280;38656;54.260;20.822;2023-05-20T07:34:48;102320.22;;;30.22;44.05
52777;BME280;38656;54.260;20.822;2023-05-20T07:37:14;102322.28;;;30.80;42.08
52777;BME280;38656;54.260;20.822;2023-05-20T07:39:41;102315.19;;;30.65;45.33
52777;BME280;38656;54.260;20.822;2023-05-20T07:42:07;102309.53;;;30.67;45.01
52777;BME280;38656;54.260;20.822;2023-05-20T07:44:33;102320.19;;;30.35;42.26
52777;BME280;38656;54.260;20.822;2023-05-20T07:46:59;102311.41;;;32.41;44.01
52777;BME280;38656;54.260;20.822;2023-05-20T07:49:26;102302.03;;;32.55;40.73
52777;BME280;38656;54.260;20.822;2023-05-20T07:51:52;102311.25;;;32.10;43.00
52777;BME280;38656;54.260;20.822;2023-05-20T07:54:18;102306.66;;;29.60;43.16
52777;BME280;38656;54.260;20.822;2023-05-20T07:56:44;102303.00;;;30.75;42.00
52777;BME280;38656;54.260;20.822;2023-05-20T07:59:10;102299.16;;;30.96;40.21
52777;BME280;38656;54.260;20.822;2023-05-20T08:01:36;102298.09;;;31.10;38.94
52777;BME280;38656;54.260;20.822;2023-05-20T08:04:04;102304.28;;;30.59;38.13
52777;BME280;38656;54.260;20.822;2023-05-20T08:06:30;102318.50;;;30.87;36.64
52777;BME280;38656;54.260;20.822;2023-05-20T08:08:57;102308.72;;;31.32;36.99
52777;BME280;38656;54.260;20.822;2023-05-20T08:11:23;102304.59;;;31.16;36.59
52777;BME280;38656;54.260;20.822;2023-05-20T08:13:50;102305.13;;;31.38;37.10
52777;BME280;38656;54.260;20.822;2023-05-20T08:16:16;102306.75;;;30.80;37.02
52777;BME280;38656;54.260;20.822;2023-05-20T08:18:42;102307.34;;;31.54;35.85
52777;BME280;38656;54.260;20.822;2023-05-20T08:21:08;102307.91;;;31.18;37.61
52777;BME280;38656;54.260;20.822;2023-05-20T08:23:35;102302.47;;;31.18;36.54
52777;BME280;38656;54.260;20.822;2023-05-20T08:26:02;102316.72;;;31.27;35.96
52777;BME280;38656;54.260;20.822;2023-05-20T08:28:29;102308.66;;;30.66;37.34
52777;BME280;38656;54.260;20.822;2023-05-20T08:30:56;102313.06;;;30.81;37.04
52777;BME280;38656;54.260;20.822;2023-05-20T08:33:25;102316.44;;;30.23;37.69
52777;BME280;38656;54.260;20.822;2023-05-20T08:35:51;102313.47;;;29.84;38.13
52777;BME280;38656;54.260;20.822;2023-05-20T08:38:17;102308.91;;;30.58;37.70
52777;BME280;38656;54.260;20.822;2023-05-20T08:40:44;102312.47;;;29.43;36.13
52777;BME280;38656;54.260;20.822;2023-05-20T08:43:10;102305.00;;;28.54;38.29
52777;BME280;38656;54.260;20.822;2023-05-20T08:45:37;102305.56;;;29.47;37.57
52777;BME280;38656;54.260;20.822;2023-05-20T08:48:04;102314.34;;;30.11;37.09
52777;BME280;38656;54.260;20.822;2023-05-20T08:50:31;102311.59;;;30.38;37.57
52777;BME280;38656;54.260;20.822;2023-05-20T08:52:57;102307.72;;;29.59;38.76
52777;BME280;38656;54.260;20.822;2023-05-20T08:58:03;102310.59;;;29.51;38.30
52777;BME280;38656;54.260;20.822;2023-05-20T09:00:30;102303.81;;;29.81;37.31
52777;BME280;38656;54.260;20.822;2023-05-20T09:02:57;102312.16;;;29.80;37.44
52777;BME280;38656;54.260;20.822;2023-05-20T09:05:24;102309.19;;;29.61;37.64
52777;BME280;38656;54.260;20.822;2023-05-20T09:07:50;102301.75;;;30.04;37.97
52777;BME280;38656;54.260;20.822;2023-05-20T09:10:16;102299.72;;;29.51;36.86
52777;BME280;38656;54.260;20.822;2023-05-20T09:12:42;102298.66;;;29.45;37.32
52777;BME280;38656;54.260;20.822;2023-05-20T09:15:10;102299.13;;;29.62;38.47
52777;BME280;38656;54.260;20.822;2023-05-20T09:17:37;102295.88;;;30.13;38.25
52777;BME280;38656;54.260;20.822;2023-05-20T09:20:08;102295.88;;;30.13;37.42
52777;BME280;38656;54.260;20.822;2023-05-20T09:22:37;102305.44;;;29.69;36.14
52777;BME280;38656;54.260;20.822;2023-05-20T09:25:03;102295.47;;;30.10;36.53
52777;BME280;38656;54.260;20.822;2023-05-20T09:27:30;102297.31;;;29.96;37.31
52777;BME280;38656;54.260;20.822;2023-05-20T09:29:56;102302.59;;;30.17;37.71
52777;BME280;38656;54.260;20.822;2023-05-20T09:32:22;102299.16;;;28.57;39.37
52777;BME280;38656;54.260;20.822;2023-05-20T09:34:51;102301.59;;;29.43;39.30
52777;BME280;38656;54.260;20.822;2023-05-20T09:37:18;102305.75;;;30.14;37.98
52777;BME280;38656;54.260;20.822;2023-05-20T09:40:00;102306.75;;;29.87;36.47
52777;BME280;38656;54.260;20.822;2023-05-20T09:45:02;102305.09;;;29.86;36.62
52777;BME280;38656;54.260;20.822;2023-05-20T09:47:29;102304.66;;;29.95;38.05
52777;BME280;38656;54.260;20.822;2023-05-20T09:49:56;102300.00;;;29.69;38.08
52777;BME280;38656;54.260;20.822;2023-05-20T09:52:25;102301.09;;;29.81;37.74
52777;BME280;38656;54.260;20.822;2023-05-20T09:54:53;102303.13;;;29.66;37.61
52777;BME280;38656;54.260;20.822;2023-05-20T09:57:21;102297.56;;;30.54;36.91
52777;BME280;38656;54.260;20.822;2023-05-20T09:59:47;102296.72;;;30.27;36.52
52777;BME280;38656;54.260;20.822;2023-05-20T10:02:15;102293.78;;;30.29;37.66
52777;BME280;38656;54.260;20.822;2023-05-20T10:04:46;102296.69;;;29.94;36.17
52777;BME280;38656;54.260;20.822;2023-05-20T10:12:51;102290.22;;;29.95;36.72
52777;BME280;38656;54.260;20.822;2023-05-20T10:18:19;102282.09;;;31.20;36.21
52777;BME280;38656;54.260;20.822;2023-05-20T10:20:49;102276.81;;;30.13;36.62
52777;BME280;38656;54.260;20.822;2023-05-20T10:23:29;102274.25;;;30.72;35.97
52777;BME280;38656;54.260;20.822;2023-05-20T10:25:57;102275.03;;;30.93;35.97
52777;BME280;38656;54.260;20.822;2023-05-20T10:28:33;102263.75;;;31.73;35.61
52777;BME280;38656;54.260;20.822;2023-05-20T10:33:44;102260.03;;;31.92;35.25
52777;BME280;38656;54.260;20.822;2023-05-20T10:36:21;102260.25;;;32.23;35.65
52777;BME280;38656;54.260;20.822;2023-05-20T10:38:57;102257.44;;;32.04;34.28
52777;BME280;38656;54.260;20.822;2023-05-20T10:41:25;102263.28;;;32.08;34.40
52777;BME280;38656;54.260;20.822;2023-05-20T10:44:05;102257.91;;;32.26;35.37
52777;BME280;38656;54.260;20.822;2023-05-20T10:46:33;102250.28;;;33.09;34.50
52777;BME280;38656;54.260;20.822;2023-05-20T10:49:03;102250.81;;;32.99;35.57
52777;BME280;38656;54.260;20.822;2023-05-20T10:51:30;102253.69;;;33.23;32.53
52777;BME280;38656;54.260;20.822;2023-05-20T10:54:01;102253.13;;;33.33;33.02
52777;BME280;38656;54.260;20.822;2023-05-20T10:56:27;102249.31;;;33.64;32.43
52777;BME280;38656;54.260;20.822;2023-05-20T10:58:54;102239.78;;;33.25;33.69
52777;BME280;38656;54.260;20.822;2023-05-20T11:01:24;102242.66;;;33.30;32.79
52777;BME280;38656;54.260;20.822;2023-05-20T11:03:54;102241.16;;;34.23;32.76
52777;BME280;38656;54.260;20.822;2023-05-20T11:06:26;102234.38;;;32.99;33.04
52777;BME280;38656;54.260;20.822;2023-05-20T11:08:53;102233.09;;;33.21;33.17
52777;BME280;38656;54.260;20.822;2023-05-20T11:11:21;102228.31;;;33.58;32.87
52777;BME280;38656;54.260;20.822;2023-05-20T11:13:51;102226.97;;;33.91;33.28
52777;BME280;38656;54.260;20.822;2023-05-20T11:16:19;102217.22;;;33.95;31.68
52777;BME280;38656;54.260;20.822;2023-05-20T11:18:48;102218.53;;;35.21;31.59
52777;BME280;38656;54.260;20.822;2023-05-20T11:21:15;102219.88;;;34.37;31.89
52777;BME280;38656;54.260;20.822;2023-05-20T11:23:41;102221.28;;;34.04;34.12
52777;BME280;38656;54.260;20.822;2023-05-20T11:26:07;102216.38;;;34.54;32.50
52777;BME280;38656;54.260;20.822;2023-05-20T11:28:34;102211.53;;;34.73;31.71
52777;BME280;38656;54.260;20.822;2023-05-20T11:31:01;102217.22;;;34.07;32.45
52777;BME280;38656;54.260;20.822;2023-05-20T11:33:28;102213.38;;;34.67;32.00
52777;BME280;38656;54.260;20.822;2023-05-20T11:35:56;102208.88;;;34.37;31.36
52777;BME280;38656;54.260;20.822;2023-05-20T11:38:23;102209.50;;;33.50;31.44
52777;BME280;38656;54.260;20.822;2023-05-20T11:40:55;102213.28;;;33.49;31.38
52777;BME280;38656;54.260;20.822;2023-05-20T11:43:23;102209.63;;;33.55;31.69
52777;BME280;38656;54.260;20.822;2023-05-20T11:45:56;102211.50;;;34.32;31.93
52777;BME280;38656;54.260;20.822;2023-05-20T11:48:25;102211.25;;;33.98;32.06
52777;BME280;38656;54.260;20.822;2023-05-20T11:50:54;102197.78;;;34.32;30.97
52777;BME280;38656;54.260;20.822;2023-05-20T11:53:21;102211.03;;;34.12;31.60
52777;BME280;38656;54.260;20.822;2023-05-20T11:55:58;102201.63;;;34.84;31.33
52777;BME280;38656;54.260;20.822;2023-05-20T11:58:28;102196.78;;;35.03;31.79
52777;BME280;38656;54.260;20.822;2023-05-20T12:00:54;102189.78;;;34.95;31.64
52777;BME280;38656;54.260;20.822;2023-05-20T12:03:20;102191.66;;;36.03;31.47
52777;BME280;38656;54.260;20.822;2023-05-20T12:05:47;102185.97;;;34.44;30.71
52777;BME280;38656;54.260;20.822;2023-05-20T12:08:15;102185.03;;;34.90;31.23
52777;BME280;38656;54.260;20.822;2023-05-20T12:10:41;102185.75;;;35.15;29.84
52777;BME280;38656;54.260;20.822;2023-05-20T12:13:09;102184.56;;;35.39;29.93
52777;BME280;38656;54.260;20.822;2023-05-20T12:15:38;102181.06;;;35.15;29.87
52777;BME280;38656;54.260;20.822;2023-05-20T12:18:05;102178.31;;;35.27;31.04
52777;BME280;38656;54.260;20.822;2023-05-20T12:20:31;102185.75;;;35.15;30.25
52777;BME280;38656;54.260;20.822;2023-05-20T12:22:59;102186.34;;;35.79;29.48
52777;BME280;38656;54.260;20.822;2023-05-20T12:25:26;102175.66;;;35.66;30.56
52777;BME280;38656;54.260;20.822;2023-05-20T12:27:52;102173.94;;;36.33;29.24
52777;BME280;38656;54.260;20.822;2023-05-20T12:30:20;102176.16;;;35.80;28.66
52777;BME280;38656;54.260;20.822;2023-05-20T12:32:48;102172.56;;;35.29;29.56
52777;BME280;38656;54.260;20.822;2023-05-20T12:35:23;102170.78;;;36.46;28.80
52777;BME280;38656;54.260;20.822;2023-05-20T12:37:49;102158.16;;;35.55;29.59
52777;BME280;38656;54.260;20.822;2023-05-20T12:40:16;102163.69;;;35.38;28.46
52777;BME280;38656;54.260;20.822;2023-05-20T12:42:44;102164.75;;;35.08;30.33
52777;BME280;38656;54.260;20.822;2023-05-20T12:45:10;102169.16;;;36.06;28.71
52777;BME280;38656;54.260;20.822;2023-05-20T12:47:38;102171.31;;;35.36;29.02
52777;BME280;38656;54.260;20.822;2023-05-20T12:50:04;102168.31;;;34.39;29.42
52777;BME280;38656;54.260;20.822;2023-05-20T12:52:31;102170.59;;;34.31;30.25
52777;BME280;38656;54.260;20.822;2023-05-20T12:54:58;102157.53;;;34.62;29.73
52777;BME280;38656;54.260;20.822;2023-05-20T12:57:24;102165.81;;;34.14;30.08